Latest Coastal Weather Observations for Varanus Island

IDW60701

Issued at 1:33 am WST Thursday 3 September 2026 (issued every 10 minutes, with the page automatically refreshed every 10 minutes)

About coastal observations | Map of coastal stations | Coastal observations for WA | Marine services | Other Formats
Station Details ID: 200100 Name: VARANUS ISLAND Lat: -20.66 Lon: 115.58 Height: 24.0 m
Data from the previous 72 hours. | See also: Recent months at Varanus Island
Date/Time
WST
Wind Sea
Height
m
Swell Vis
km
Cloud Weather Temp
°C
Press
MSL
hPa
Rain since
9am
mm
Dir  Spd
kts
Gust
kts
Height
m
Period
s
Dir
03/01:30am WSW 10 13 - - - - - - - 22.9 1015.8 0.0
03/01:00am W 12 13 - - - - - - - 23.1 1016.0 0.0
03/12:30am W 12 14 - - - - - - - 23.2 1016.2 0.0
03/12:00am W 12 15 - - - - - - - 23.2 1016.3 0.0
 
Date/Time
WST
Wind Sea
Height
m
Swell Vis
km
Cloud Weather Temp
°C
Press
MSL
hPa
Rain since
9am
mm
Dir  Spd
kts
Gust
kts
Height
m
Period
s
Dir
02/11:30pm W 12 15 - - - - - - - 23.2 1016.5 0.0
02/11:00pm WSW 12 15 - - - - - - - 23.3 1016.6 0.0
02/10:30pm W 14 16 - - - - - - - 23.2 1016.7 0.0
02/10:00pm W 14 16 - - - - - - - 23.1 1016.7 0.0
02/09:30pm W 14 16 - - - - - - - 23.3 1016.8 0.0
02/09:00pm W 15 17 - - - - - - - 23.2 1016.6 0.0
02/08:30pm WSW 13 16 - - - - - - - 23.3 1016.4 0.0
02/08:00pm W 14 17 - - - - - - - 23.4 1016.3 0.0
02/07:30pm W 13 16 - - - - - - - 23.4 1016.2 0.0
02/07:00pm W 14 16 - - - - - - - 23.6 1015.9 0.0
02/06:30pm W 15 17 - - - - - - - 24.0 1015.7 0.0
02/06:00pm W 13 15 - - - - - - - 24.4 1015.7 0.0
02/05:30pm W 11 14 - - - - - - - 25.2 1015.5 0.0
02/05:00pm W 11 14 - - - - - - - 25.8 1015.3 0.0
02/04:30pm W 10 11 - - - - - - - 26.4 1015.3 0.0
02/04:00pm W 13 18 - - - - - - - 26.6 1015.3 0.0
02/03:30pm W 11 13 - - - - - - - 27.1 1015.2 0.0
02/03:00pm W 10 12 - - - - - - - 27.3 1015.5 0.0
02/02:30pm W 9 11 - - - - - - - 26.8 1015.8 0.0
02/02:00pm WNW 5 6 - - - - - - - 27.7 1016.1 0.0
02/01:30pm SW 4 5 - - - - - - - 27.6 1016.5 0.0
02/01:00pm SW 4 5 - - - - - - - 25.4 1016.9 0.0
02/12:30pm SW 6 7 - - - - - - - 24.8 1017.2 0.0
02/12:00pm SSW 9 10 - - - - - - - 25.4 1017.4 0.0
02/11:30am S 9 11 - - - - - - - 25.4 1017.6 0.0
02/11:00am SSW 10 11 - - - - - - - 25.3 1017.8 0.0
02/10:30am SSW 11 13 - - - - - - - 25.1 1018.0 0.0
02/10:00am SSW 12 16 - - - - - - - 24.7 1018.3 0.0
02/09:30am SSW 13 16 - - - - - - - 24.0 1018.1 0.0
02/09:00am SW 13 15 - - - - - - - 23.3 1018.1 -
02/08:30am SW 12 13 - - - - - - - 22.8 1018.4 -
02/08:00am SW 14 16 - - - - - - - 22.1 1018.4 -
02/07:30am SW 15 17 - - - - - - - 21.9 1018.3 -
02/07:00am SW 13 16 - - - - - - - 21.9 1018.3 -
02/06:30am SW 14 16 - - - - - - - 21.8 1017.9 -
02/06:00am SW 13 15 - - - - - - - 22.0 1017.8 -
02/05:30am WSW 12 14 - - - - - - - 21.9 1017.7 -
02/05:00am SW 12 13 - - - - - - - 22.2 1017.6 -
02/04:30am SW 12 13 - - - - - - - 22.1 1017.6 -
02/04:00am SW 13 16 - - - - - - - 22.0 1017.7 -
02/03:30am SW 12 14 - - - - - - - 22.2 1017.9 -
02/03:00am SW 14 16 - - - - - - - 22.5 1018.0 0.0
02/02:30am SW 14 16 - - - - - - - 22.5 1018.0 -
02/02:00am SW 14 17 - - - - - - - 22.6 1018.1 -
02/01:30am SW 17 20 - - - - - - - 22.7 1018.1 -
02/01:00am SW 14 16 - - - - - - - 22.7 1018.3 -
02/12:30am SW 13 16 - - - - - - - 22.4 1018.5 -
02/12:00am SW 13 16 - - - - - - - 22.5 1018.8 -
 
Date/Time
WST
Wind Sea
Height
m
Swell Vis
km
Cloud Weather Temp
°C
Press
MSL
hPa
Rain since
9am
mm
Dir  Spd
kts
Gust
kts
Height
m
Period
s
Dir
01/11:30pm WSW 14 16 - - - - - - - 22.7 1018.7 -
01/11:00pm SW 13 14 - - - - - - - 22.8 1018.7 -
01/10:30pm SW 14 16 - - - - - - - 22.9 1018.6 -
01/10:00pm WSW 13 15 - - - - - - - 23.0 1018.6 -
01/09:30pm WSW 14 16 - - - - - - - 23.1 1018.7 -
01/09:00pm WSW 15 17 - - - - - - - 23.4 1018.6 -
01/08:30pm WSW 15 17 - - - - - - - 23.5 1018.5 -
01/08:00pm WSW 14 16 - - - - - - - 23.7 1018.3 -
01/07:30pm WSW 12 14 - - - - - - - 23.8 1017.9 -
01/07:00pm WSW 10 12 - - - - - - - 24.1 1017.6 -
01/06:30pm WSW 10 12 - - - - - - - 24.6 1017.4 -
01/06:00pm W 9 10 - - - - - - - 25.6 1017.2 -
01/05:30pm WSW 7 9 - - - - - - - 26.1 1017.1 -
01/05:00pm SSW 11 12 - - - - - - - 26.7 1016.9 -
01/04:30pm SSW 10 13 - - - - - - - 26.9 1016.9 -
01/04:00pm SSW 11 15 - - - - - - - 27.0 1016.8 -
01/03:30pm WSW 8 11 - - - - - - - 26.6 1016.8 -
01/03:00pm SSW 9 12 - - - - - - - 26.3 1017.0 0.0
01/02:30pm SSW 10 13 - - - - - - - 26.7 1017.2 0.0
01/02:00pm SSW 11 14 - - - - - - - 26.5 1017.4 0.0
01/01:30pm SSW 10 13 - - - - - - - 26.0 1017.6 0.0
01/01:00pm SSW 11 13 - - - - - - - 26.0 1017.8 0.0
01/12:30pm SSW 10 13 - - - - - - - 25.9 1018.2 0.0
01/12:00pm SSW 9 11 - - - - - - - 25.8 1018.6 0.0
01/11:30am SSW 9 11 - - - - - - - 25.3 1018.9 0.0
01/11:00am SSW 9 11 - - - - - - - 24.6 1019.3 0.0
01/10:30am SSW 9 11 - - - - - - - 24.7 1019.5 0.0
01/10:00am SSW 10 13 - - - - - - - 24.6 1019.8 0.0
01/09:30am S 12 15 - - - - - - - 24.0 1019.9 0.0
01/09:00am S 13 16 - - - - - - - 23.9 1020.0 0.0
01/08:30am S 13 16 - - - - - - - 23.5 1020.0 0.0
01/08:00am S 14 16 - - - - - - - 23.1 1019.8 0.0
01/07:30am S 13 15 - - - - - - - 22.6 1019.8 0.0
01/07:00am S 14 17 - - - - - - - 22.2 1019.6 0.0
01/06:30am S 15 17 - - - - - - - 22.0 1019.3 0.0
01/06:00am S 16 19 - - - - - - - 22.2 1019.0 0.0
01/05:30am SSW 16 20 - - - - - - - 22.3 1018.8 0.0
01/05:00am SSW 17 20 - - - - - - - 22.3 1018.6 0.0
01/04:30am SSW 17 20 - - - - - - - 22.4 1018.6 0.0
01/04:00am SSW 17 21 - - - - - - - 22.4 1018.6 0.0
01/03:30am S 17 21 - - - - - - - 22.5 1018.8 0.0
01/03:00am SSW 17 20 - - - - - - - 22.7 1019.0 0.0
01/02:30am S 17 21 - - - - - - - 22.8 1019.2 0.0
01/02:00am SSW 18 21 - - - - - - - 22.9 1019.3 0.0
01/01:30am SSW 17 20 - - - - - - - 22.8 1019.5 0.0
01/01:00am SSW 18 20 - - - - - - - 22.8 1019.6 0.0
01/12:30am SSW 18 21 - - - - - - - 22.8 1019.8 0.0
01/12:00am SSW 19 21 - - - - - - - 22.8 1020.0 0.0
 
Date/Time
WST
Wind Sea
Height
m
Swell Vis
km
Cloud Weather Temp
°C
Press
MSL
hPa
Rain since
9am
mm
Dir  Spd
kts
Gust
kts
Height
m
Period
s
Dir
31/11:30pm SW 16 19 - - - - - - - 22.9 1020.1 0.0
31/11:00pm SW 17 19 - - - - - - - 23.0 1020.1 0.0
31/10:30pm SW 14 16 - - - - - - - 23.1 1020.2 0.0
31/10:00pm SW 16 18 - - - - - - - 23.0 1020.2 0.0
31/09:30pm SW 17 21 - - - - - - - 23.0 1020.1 0.0
31/09:00pm SW 17 19 - - - - - - - 23.2 1020.1 0.0
31/08:30pm SW 16 17 - - - - - - - 23.3 1020.0 0.0
31/08:00pm WSW 15 17 - - - - - - - 23.5 1019.8 0.0
31/07:30pm WSW 16 17 - - - - - - - 23.5 1019.5 0.0
31/07:00pm WSW 12 13 - - - - - - - 24.0 1019.5 0.0
31/06:30pm WSW 9 12 - - - - - - - 24.7 1019.2 0.0
31/06:00pm SW 9 10 - - - - - - - 24.8 1018.8 0.0
31/05:30pm SW 7 8 - - - - - - - 25.2 1018.6 0.0
31/05:00pm SW 8 10 - - - - - - - 25.5 1018.5 0.0
31/04:30pm SSW 9 10 - - - - - - - 25.6 1018.4 0.0
31/04:00pm SSW 7 9 - - - - - - - 26.1 1018.3 0.0
31/03:30pm SSW 7 9 - - - - - - - 26.1 1018.4 0.0
31/03:00pm SSW 7 9 - - - - - - - 26.5 1018.5 0.0
31/02:30pm SSW 9 11 - - - - - - - 26.6 1018.6 0.0
31/02:00pm S 9 11 - - - - - - - 26.2 1018.8 0.0
31/01:30pm S 10 12 - - - - - - - 26.6 1019.0 0.0
31/01:00pm S 10 11 - - - - - - - 26.1 1019.2 0.0
31/12:30pm S 9 11 - - - - - - - 26.4 1019.5 0.0
31/12:00pm S 8 11 - - - - - - - 25.4 1019.8 0.0
31/11:30am S 8 10 - - - - - - - 25.7 1020.1 0.0
31/11:00am S 8 10 - - - - - - - 25.4 1020.2 0.0
31/10:30am S 9 11 - - - - - - - 25.3 1020.5 0.0
31/10:00am S 10 12 - - - - - - - 25.0 1020.6 0.0
31/09:30am S 9 11 - - - - - - - 24.7 1020.5 0.0
31/09:00am S 9 11 - - - - - - - 24.4 1020.3 0.0
31/08:30am S 9 11 - - - - - - - 23.8 1020.1 0.0
31/08:00am S 10 13 - - - - - - - 23.1 1020.0 0.0
31/07:30am S 11 14 - - - - - - - 22.5 1019.6 0.0
31/07:00am S 12 14 - - - - - - - 22.1 1019.1 0.0
31/06:30am S 12 14 - - - - - - - 22.1 1018.9 0.0
31/06:00am SSW 13 14 - - - - - - - 22.3 1018.6 0.0
31/05:30am SSW 9 11 - - - - - - - 22.2 1018.4 0.0
31/05:00am SSW 7 9 - - - - - - - 22.0 1018.2 0.0
31/04:30am SSW 9 10 - - - - - - - 21.9 1018.2 0.0
31/04:00am SSW 9 10 - - - - - - - 21.9 1018.3 0.0
31/03:30am SSW 9 10 - - - - - - - 22.0 1018.3 0.0
31/03:00am SSW 9 10 - - - - - - - 22.0 1018.5 0.0
31/02:30am SSW 9 10 - - - - - - - 22.0 1018.6 0.0
31/02:00am SSW 9 10 - - - - - - - 22.1 1018.8 0.0

Other formats

Comma delimited format used in spreadsheet applications
http://www.bom.gov.au/fwo/IDW60701/IDW60701.95303.axf

JavaScript Object Notation format (JSON) in row-major order
http://www.bom.gov.au/fwo/IDW60701/IDW60701.95303.json

Data quality

Most of these data are generated automatically and are frequently updated. Quality checks on data are not normally performed. It is possible for incorrect values to appear. Refer to information at About Latest Weather Observations and please check the disclaimer before using these data.